Time;durP1;ratioP1;P1;durP2;ratioP2;P2;SDS_P1;SDS_P2;PMS_P1;PMS_P2;Temp;Humidity;BMP_temperature;BMP_pressure;BME280_temperature;BME280_humidity;BME280_pressure;Samples;Min_cycle;Max_cycle;Signal;HPM_P1;HPM_P2
2024/01/10 00:03:16;;;;;;;27.58;11.07;;;;;;;-5.69;82.62;101897.44;8279654;28;20423;-56
2024/01/10 00:07:16;;;;;;;31.25;11.98;;;;;;;-5.85;83.06;101901.06;8260832;28;20439;-56
2024/01/10 00:11:17;;;;;;;29.90;11.65;;;;;;;-5.89;84.21;101905.44;8256478;28;20120;-57
2024/01/10 00:15:17;;;;;;;32.88;13.23;;;;;;;-5.71;87.42;101894.81;8209476;28;20219;-57
2024/01/10 00:19:18;;;;;;;29.85;12.82;;;;;;;-5.68;88.33;101892.19;8210310;28;20499;-56
2024/01/10 00:23:18;;;;;;;27.85;11.63;;;;;;;-5.72;88.39;101906.25;8210836;28;20155;-57
2024/01/10 00:27:19;;;;;;;27.60;11.95;;;;;;;-5.56;86.90;101907.94;8205324;28;20277;-57
2024/01/10 00:31:19;;;;;;;31.45;12.70;;;;;;;-5.52;85.58;101896.50;8205879;28;20041;-54
2024/01/10 00:35:20;;;;;;;27.70;11.70;;;;;;;-5.59;86.35;101893.91;8209422;28;20131;-55
2024/01/10 00:39:22;;;;;;;22.98;10.88;;;;;;;-5.95;86.02;101884.41;8246891;28;20067;-54
2024/01/10 00:43:22;;;;;;;34.05;12.88;;;;;;;-6.00;86.74;101886.19;8303896;28;20045;-52
2024/01/10 00:47:23;;;;;;;24.83;10.27;;;;;;;-5.77;87.34;101880.84;8303281;28;20057;-52
2024/01/10 00:51:24;;;;;;;25.63;12.25;;;;;;;-5.92;86.54;101887.03;8302444;28;20045;-53
2024/01/10 00:55:25;;;;;;;30.73;12.75;;;;;;;-6.39;87.06;101875.75;8306228;28;20029;-53
2024/01/10 00:59:25;;;;;;;29.35;11.32;;;;;;;-6.23;87.77;101872.22;8306206;28;20041;-55
2024/01/10 01:03:25;;;;;;;28.05;11.43;;;;;;;-6.01;87.56;101868.63;8299852;28;20045;-55
2024/01/10 01:07:26;;;;;;;33.75;12.63;;;;;;;-5.86;88.14;101884.38;8320874;28;20491;-54
2024/01/10 01:11:27;;;;;;;33.10;12.75;;;;;;;-5.81;89.12;101877.31;8318107;28;20100;-55
2024/01/10 01:15:27;;;;;;;29.95;11.80;;;;;;;-5.88;90.37;101880.91;8304592;28;20050;-55
2024/01/10 01:19:28;;;;;;;31.70;13.05;;;;;;;-6.25;89.26;101880.09;8304593;28;20033;-55
2024/01/10 01:23:28;;;;;;;27.98;12.50;;;;;;;-6.51;89.09;101878.38;8301687;28;20069;-54
2024/01/10 01:27:28;;;;;;;31.63;12.63;;;;;;;-6.13;90.39;101871.31;8302033;28;20860;-55
2024/01/10 01:31:30;;;;;;;33.90;13.55;;;;;;;-6.40;88.99;101874.00;8301799;28;20108;-53
2024/01/10 01:35:30;;;;;;;34.28;12.90;;;;;;;-6.32;90.16;101882.75;8301330;28;20385;-54
2024/01/10 01:39:31;;;;;;;34.13;13.77;;;;;;;-6.27;89.87;101876.63;8232041;28;20116;-54
2024/01/10 01:43:32;;;;;;;29.77;14.00;;;;;;;-6.13;89.37;101871.31;8215840;28;20726;-56
2024/01/10 01:47:32;;;;;;;33.42;13.52;;;;;;;-6.20;89.47;101872.19;8198561;28;20392;-56
2024/01/10 01:51:36;;;;;;;35.90;13.63;;;;;;;-6.16;89.31;101868.69;8170115;28;20412;-56
2024/01/10 01:55:37;;;;;;;36.33;13.95;;;;;;;-6.33;88.21;101866.09;8171755;28;20390;-55
2024/01/10 01:59:37;;;;;;;34.65;14.18;;;;;;;-6.25;88.11;101874.84;8174584;28;20050;-55
2024/01/10 02:03:38;;;;;;;33.67;12.63;;;;;;;-6.12;88.96;101865.19;8170427;28;20147;-56
2024/01/10 02:07:39;;;;;;;33.03;13.32;;;;;;;-6.09;89.17;101857.28;8206619;28;20393;-56
2024/01/10 02:11:40;;;;;;;35.83;13.55;;;;;;;-6.18;89.55;101854.66;8214414;28;20384;-56
2024/01/10 02:15:40;;;;;;;32.13;13.90;;;;;;;-6.36;89.80;101849.44;8239637;28;20057;-57
2024/01/10 02:19:41;;;;;;;29.00;13.32;;;;;;;-6.25;90.33;101852.94;8270187;28;20049;-56
2024/01/10 02:23:41;;;;;;;37.10;15.32;;;;;;;-6.09;91.00;101852.00;8268094;28;20046;-56
2024/01/10 02:27:42;;;;;;;33.28;14.48;;;;;;;-6.37;89.70;101847.69;8268498;28;20448;-56
2024/01/10 02:31:44;;;;;;;35.38;13.75;;;;;;;-6.38;90.49;101849.44;8268493;28;20049;-56
2024/01/10 02:35:44;;;;;;;32.95;12.65;;;;;;;-6.18;90.76;101839.78;8270184;28;20493;-57
2024/01/10 02:39:45;;;;;;;35.30;13.82;;;;;;;-6.48;89.99;101847.72;8269673;28;20472;-56
2024/01/10 02:43:45;;;;;;;32.15;12.50;;;;;;;-6.33;90.48;101844.19;8286813;28;20089;-55
2024/01/10 02:47:46;;;;;;;36.22;13.90;;;;;;;-6.13;89.91;101847.66;8304752;28;20064;-56
2024/01/10 02:51:46;;;;;;;33.22;14.35;;;;;;;-6.31;89.93;101839.81;8303747;28;20388;-57
2024/01/10 02:55:49;;;;;;;36.42;14.75;;;;;;;-6.09;90.58;101844.13;8304825;28;20042;-57
2024/01/10 02:59:49;;;;;;;38.17;14.35;;;;;;;-6.36;89.42;101845.06;8307216;28;20438;-56
2024/01/10 03:03:50;;;;;;;34.35;14.07;;;;;;;-6.40;90.72;101842.44;8303643;28;20467;-58
2024/01/10 03:07:51;;;;;;;38.38;15.55;;;;;;;-6.11;91.07;101834.50;8312053;28;20060;-57
2024/01/10 03:11:52;;;;;;;40.17;15.95;;;;;;;-6.04;91.20;101842.31;8294773;28;20114;-54
2024/01/10 03:15:52;;;;;;;40.78;16.60;;;;;;;-5.97;91.17;101833.56;8237939;28;20281;-54
2024/01/10 03:19:53;;;;;;;38.60;16.23;;;;;;;-6.38;91.56;101833.66;8214227;28;20316;-53
2024/01/10 03:23:57;;;;;;;40.17;16.50;;;;;;;-6.58;91.57;101832.84;8211606;28;20289;-53
2024/01/10 03:27:58;;;;;;;43.40;17.00;;;;;;;-6.19;94.04;101837.13;8214027;28;20068;-56
2024/01/10 03:31:58;;;;;;;43.40;16.38;;;;;;;-6.06;92.67;101825.69;8209530;28;20151;-57
2024/01/10 03:35:59;;;;;;;43.05;17.95;;;;;;;-6.42;91.63;101812.63;8211671;28;20140;-57
2024/01/10 03:39:59;;;;;;;40.00;16.73;;;;;;;-6.50;91.92;101817.91;8223604;28;20079;-57
2024/01/10 03:44:00;;;;;;;41.83;16.90;;;;;;;-6.52;91.93;101813.53;8280018;28;20045;-56
2024/01/10 03:48:00;;;;;;;37.47;15.68;;;;;;;-6.76;92.38;101811.84;8315974;28;20041;-55
2024/01/10 03:52:00;;;;;;;35.58;16.63;;;;;;;-6.34;93.99;101810.88;8308591;28;20056;-53
2024/01/10 03:56:04;;;;;;;43.17;16.80;;;;;;;-6.25;94.26;101810.84;8309845;28;20061;-56
2024/01/10 04:00:06;;;;;;;39.38;18.23;;;;;;;-6.52;93.73;101805.66;8311713;28;20033;-56
2024/01/10 04:04:06;;;;;;;48.33;17.83;;;;;;;-6.64;93.77;101816.19;8308383;28;20527;-56
2024/01/10 04:08:07;;;;;;;44.63;17.48;;;;;;;-6.57;95.62;101817.91;8310806;28;20104;-55
2024/01/10 04:12:08;;;;;;;41.70;17.55;;;;;;;-6.55;95.14;101805.66;8309874;28;20080;-55
2024/01/10 04:16:08;;;;;;;41.63;16.67;;;;;;;-6.52;95.25;101824.06;8308856;28;20045;-56
2024/01/10 04:20:09;;;;;;;42.22;17.33;;;;;;;-6.23;95.64;101809.06;8308414;28;20226;-53
2024/01/10 04:24:10;;;;;;;48.88;18.65;;;;;;;-6.28;93.72;101810.84;8304617;28;20504;-54
2024/01/10 04:28:10;;;;;;;42.75;18.42;;;;;;;-6.44;93.71;101804.75;8309617;28;20124;-53
2024/01/10 04:32:11;;;;;;;46.08;18.75;;;;;;;-6.30;94.83;101804.72;8310675;28;20076;-55
2024/01/10 04:36:11;;;;;;;39.95;18.35;;;;;;;-6.22;95.24;101800.31;8308258;28;20045;-53
2024/01/10 04:40:11;;;;;;;43.80;19.45;;;;;;;-6.15;94.72;101794.13;8309449;28;20500;-53
2024/01/10 04:44:12;;;;;;;50.33;20.70;;;;;;;-6.05;94.52;101803.75;8309512;28;20133;-54
2024/01/10 04:48:12;;;;;;;48.05;19.55;;;;;;;-6.03;94.91;101791.47;8266988;28;20038;-56
2024/01/10 04:52:13;;;;;;;47.08;19.33;;;;;;;-6.35;94.24;101801.22;8213372;28;20282;-57
2024/01/10 04:56:13;;;;;;;47.08;17.95;;;;;;;-6.25;95.14;101802.97;8213163;28;20037;-57
2024/01/10 05:00:14;;;;;;;41.03;17.20;;;;;;;-6.02;94.25;101797.56;8229498;28;20164;-57
2024/01/10 05:04:15;;;;;;;40.50;18.17;;;;;;;-6.34;93.08;101795.09;8247531;28;20690;-56
2024/01/10 05:08:15;;;;;;;41.55;18.60;;;;;;;-6.27;94.42;101802.06;8251738;28;20061;-55
2024/01/10 05:12:16;;;;;;;42.45;17.45;;;;;;;-6.27;94.39;101809.97;8253723;28;20061;-57
2024/01/10 05:16:17;;;;;;;42.72;18.52;;;;;;;-6.25;94.21;101801.19;8290716;28;20041;-57
2024/01/10 05:20:20;;;;;;;39.78;17.77;;;;;;;-6.30;94.48;101816.13;8316196;28;20044;-56
2024/01/10 05:24:21;;;;;;;48.63;18.13;;;;;;;-6.18;94.59;101807.31;8293010;28;20499;-55
2024/01/10 05:28:21;;;;;;;40.75;17.15;;;;;;;-6.07;95.71;101810.78;8304433;28;20455;-57
2024/01/10 05:32:21;;;;;;;37.42;16.55;;;;;;;-5.90;95.92;101802.78;8310166;28;20033;-56
2024/01/10 05:36:23;;;;;;;39.50;18.30;;;;;;;-5.97;94.86;101796.69;8308190;28;20128;-56
2024/01/10 05:40:24;;;;;;;40.17;17.83;;;;;;;-6.18;94.54;101802.03;8304691;28;20121;-56
2024/01/10 05:44:24;;;;;;;44.13;18.27;;;;;;;-6.10;95.25;101800.28;8306909;28;20041;-56
2024/01/10 05:48:25;;;;;;;44.25;18.23;;;;;;;-5.95;96.10;101794.06;8305931;28;20061;-58
2024/01/10 05:52:25;;;;;;;42.55;17.50;;;;;;;-6.10;94.62;101802.91;8297971;28;20064;-58
2024/01/10 05:56:27;;;;;;;47.58;18.88;;;;;;;-6.05;95.87;101803.75;8316547;28;20043;-59
2024/01/10 06:00:28;;;;;;;36.92;16.75;;;;;;;-5.81;96.13;101793.06;8309543;28;20543;-57
2024/01/10 06:04:31;;;;;;;43.08;17.85;;;;;;;-5.78;95.64;101797.44;8315763;28;20391;-56
2024/01/10 06:08:31;;;;;;;40.90;18.10;;;;;;;-5.99;94.41;101790.56;8321256;28;20044;-57
2024/01/10 07:29:08;;;;;;;36.28;15.02;;;;;;;-6.81;98.41;101810.06;8267582;28;20760;-54
2024/01/10 07:33:08;;;;;;;35.55;14.73;;;;;;;-6.84;98.71;101817.94;8269322;28;20164;-54
2024/01/10 07:37:10;;;;;;;32.65;14.38;;;;;;;-6.52;100.00;101805.66;8272292;28;20145;-54
2024/01/10 07:41:13;;;;;;;38.22;16.15;;;;;;;-6.22;98.08;101818.72;8282688;28;20038;-56
2024/01/10 07:45:13;;;;;;;37.17;16.33;;;;;;;-6.35;95.21;101814.34;8291600;28;20048;-55
2024/01/10 07:49:16;;;;;;;36.72;15.32;;;;;;;-6.42;95.67;101813.53;8291965;28;20346;-54
2024/01/10 07:53:17;;;;;;;36.00;14.65;;;;;;;-6.55;95.51;101821.44;8304255;28;20030;-55
2024/01/10 07:57:19;;;;;;;36.35;15.05;;;;;;;-6.40;97.79;101822.25;8305349;28;20064;-55
2024/01/10 08:01:19;;;;;;;32.85;14.38;;;;;;;-6.14;98.07;101823.97;8310825;28;20037;-55
2024/01/10 08:05:21;;;;;;;34.78;15.15;;;;;;;-6.06;98.34;101825.69;8303540;28;20175;-55
2024/01/10 08:09:23;;;;;;;32.13;14.80;;;;;;;-6.00;98.30;101820.41;8294272;28;20050;-53
2024/01/10 08:13:23;;;;;;;31.15;15.02;;;;;;;-5.83;98.42;101813.28;8295652;28;20091;-56
2024/01/10 08:17:24;;;;;;;33.47;14.32;;;;;;;-5.82;97.04;101827.34;8295677;28;20046;-56
2024/01/10 08:21:25;;;;;;;33.42;14.90;;;;;;;-5.91;96.09;101827.38;8298576;28;20040;-55
2024/01/10 08:25:29;;;;;;;38.30;14.65;;;;;;;-5.66;97.12;101829.88;8299695;28;20053;-53
2024/01/10 08:29:31;;;;;;;37.42;14.65;;;;;;;-5.70;96.64;101821.97;8311876;28;20103;-53
2024/01/10 08:33:31;;;;;;;30.08;13.73;;;;;;;-5.48;96.81;101832.41;8306297;28;20091;-54
2024/01/10 08:37:32;;;;;;;40.20;15.07;;;;;;;-5.50;95.91;101826.25;8307073;28;20048;-53
2024/01/10 08:41:33;;;;;;;37.25;15.50;;;;;;;-5.43;94.96;101827.97;8308731;28;20053;-53
2024/01/10 08:45:34;;;;;;;38.47;15.25;;;;;;;-5.60;95.06;101819.28;8307073;28;20038;-54
2024/01/10 08:49:34;;;;;;;42.60;17.35;;;;;;;-5.40;95.11;101833.22;8301912;28;20044;-54
2024/01/10 08:53:35;;;;;;;42.75;21.67;;;;;;;-5.34;94.71;101833.16;8307626;28;20069;-54
2024/01/10 08:57:35;;;;;;;82.38;45.13;;;;;;;-5.27;94.32;101834.91;8306453;28;20041;-55
2024/01/10 09:01:36;;;;;;;47.95;19.55;;;;;;;-5.29;94.21;101835.78;8305491;28;20050;-56
2024/01/10 09:05:39;;;;;;;41.13;19.33;;;;;;;-5.17;93.71;101841.84;8308002;28;20064;-55
2024/01/10 09:09:40;;;;;;;51.03;22.73;;;;;;;-4.99;93.77;101857.56;8305833;28;20029;-55
2024/01/10 09:13:40;;;;;;;54.35;21.73;;;;;;;-4.76;93.05;101846.81;8305842;28;20132;-57
2024/01/10 09:17:44;;;;;;;50.60;18.92;;;;;;;-4.57;92.99;101854.53;8304920;28;20057;-53
2024/01/10 09:21:45;;;;;;;56.40;23.00;;;;;;;-4.46;92.06;101854.44;8304962;28;20033;-54
2024/01/10 09:25:45;;;;;;;57.15;23.38;;;;;;;-4.31;91.58;101855.19;8310999;28;20399;-56
2024/01/10 09:29:46;;;;;;;42.38;18.27;;;;;;;-4.17;90.44;101853.25;8307462;28;20083;-55
2024/01/10 09:33:46;;;;;;;47.80;20.13;;;;;;;-4.08;89.33;101845.25;8303238;28;20095;-55
2024/01/10 09:37:47;;;;;;;46.13;18.35;;;;;;;-3.94;87.99;101844.22;8305452;28;20053;-55
2024/01/10 09:41:50;;;;;;;49.60;19.65;;;;;;;-3.78;87.79;101848.44;8305915;28;20049;-55
2024/01/10 09:45:51;;;;;;;38.33;16.30;;;;;;;-3.61;87.26;101846.44;8304317;28;20038;-56
2024/01/10 09:49:52;;;;;;;49.85;19.42;;;;;;;-3.51;87.36;101853.38;8303853;28;20041;-55
2024/01/10 09:53:56;;;;;;;34.85;15.30;;;;;;;-3.42;87.11;101850.63;8304038;28;20549;-55
2024/01/10 09:57:56;;;;;;;35.13;15.43;;;;;;;-3.26;87.09;101842.41;8307021;28;20037;-56
2024/01/10 10:01:58;;;;;;;38.72;15.20;;;;;;;-3.17;86.08;101854.66;8304270;28;20504;-55
2024/01/10 10:06:00;;;;;;;38.13;15.95;;;;;;;-2.99;85.08;101854.38;8304836;28;20041;-55
2024/01/10 10:10:00;;;;;;;35.92;16.05;;;;;;;-2.63;81.84;101845.84;8305936;28;20044;-55
2024/01/10 10:14:18;;;;;;;41.97;16.17;;;;;;;-1.96;78.77;101846.34;8304754;28;20045;-54
2024/01/10 10:18:22;;;;;;;39.85;16.08;;;;;;;-1.37;77.94;101843.34;8302886;28;20049;-56
2024/01/10 10:22:22;;;;;;;46.08;16.10;;;;;;;-1.45;74.09;101850.59;8304808;28;20510;-55
2024/01/10 10:26:23;;;;;;;35.50;13.88;;;;;;;-1.69;73.61;101850.22;8305658;28;20454;-55
2024/01/10 10:30:24;;;;;;;38.58;15.68;;;;;;;-1.81;73.21;101851.34;8305267;28;20559;-55
2024/01/10 10:34:32;;;;;;;42.78;16.90;;;;;;;-1.38;71.91;101851.31;8303580;28;20394;-55
2024/01/10 10:38:33;;;;;;;37.33;14.45;;;;;;;-0.43;69.91;101842.84;8304473;28;20041;-54
2024/01/10 10:42:34;;;;;;;42.70;15.40;;;;;;;0.03;66.00;101838.03;8304569;28;20048;-55
2024/01/10 10:46:36;;;;;;;29.58;13.50;;;;;;;0.17;66.36;101831.44;8302827;28;20512;-55
2024/01/10 10:50:36;;;;;;;37.97;14.35;;;;;;;-0.52;65.18;101832.44;8302116;28;20041;-54
2024/01/10 10:54:39;;;;;;;40.03;14.45;;;;;;;-0.62;67.09;101830.94;8303276;28;20045;-55
2024/01/10 10:58:41;;;;;;;32.67;13.77;;;;;;;-0.90;67.81;101834.28;8304902;28;20468;-56
2024/01/10 11:02:43;;;;;;;35.90;13.88;;;;;;;-1.03;68.62;101839.03;8301896;28;20517;-56
2024/01/10 11:06:44;;;;;;;41.22;15.98;;;;;;;-0.93;68.50;101829.94;8303923;28;20042;-56
2024/01/10 11:10:46;;;;;;;33.00;14.20;;;;;;;-1.02;67.48;101829.28;8304096;28;20037;-56
2024/01/10 11:15:14;;;;;;;33.17;14.27;;;;;;;-1.04;68.48;101837.28;8301939;28;20034;-54
2024/01/10 11:19:55;;;;;;;35.42;14.18;;;;;;;-0.92;68.61;101837.00;8302612;28;20045;-57
2024/01/10 11:23:59;;;;;;;33.75;13.50;;;;;;;-0.95;66.49;101847.69;8307308;28;20041;-56
2024/01/10 11:28:03;;;;;;;36.83;14.25;;;;;;;-0.99;65.89;101832.75;8300873;28;20046;-56
2024/01/10 11:32:05;;;;;;;31.10;13.88;;;;;;;-0.99;66.06;101840.72;8303411;28;20038;-56
2024/01/10 11:36:24;;;;;;;35.60;14.35;;;;;;;-1.04;64.55;101837.28;8301071;28;20041;-56
2024/01/10 11:40:46;;;;;;;32.50;15.15;;;;;;;-1.01;63.93;101825.75;8301067;28;20042;-55
2024/01/10 11:44:49;;;;;;;38.10;15.55;;;;;;;-0.93;64.22;101827.28;8301558;28;20044;-55
2024/01/10 11:48:50;;;;;;;36.80;14.13;;;;;;;-0.68;64.90;101815.16;8301495;28;20506;-55
2024/01/10 11:52:53;;;;;;;39.00;14.13;;;;;;;-0.40;63.75;101810.88;8300755;28;20649;-55
2024/01/10 11:56:54;;;;;;;34.70;15.63;;;;;;;0.27;63.64;101799.25;8298104;28;20124;-55
2024/01/10 12:00:57;;;;;;;38.55;14.98;;;;;;;0.93;61.02;101807.84;8301645;28;20053;-56
2024/01/10 12:04:58;;;;;;;38.38;14.45;;;;;;;2.00;58.54;101786.38;8307502;28;20261;-56
2024/01/10 12:08:59;;;;;;;35.60;15.05;;;;;;;2.08;58.36;101788.75;8306310;28;20120;-56
2024/01/10 12:12:59;;;;;;;40.40;15.40;;;;;;;1.86;58.66;101793.13;8308180;28;20042;-56
2024/01/10 12:17:00;;;;;;;36.70;15.23;;;;;;;1.84;60.12;101778.97;8306859;28;20052;-57
2024/01/10 12:21:00;;;;;;;37.20;16.60;;;;;;;1.08;61.63;101777.19;8305460;28;20103;-55
2024/01/10 12:25:05;;;;;;;38.28;14.95;;;;;;;0.74;63.40;101784.50;8313315;28;20045;-56
2024/01/10 12:29:06;;;;;;;36.05;15.98;;;;;;;0.52;64.71;101778.13;8306576;28;20076;-55
2024/01/10 12:33:08;;;;;;;33.58;15.80;;;;;;;0.53;64.04;101769.22;8309496;28;20037;-56
2024/01/10 12:37:11;;;;;;;41.92;16.65;;;;;;;0.53;63.89;101774.53;8318422;28;20095;-56
2024/01/10 12:41:14;;;;;;;41.85;17.45;;;;;;;0.56;64.75;101774.44;8317784;28;20405;-55
2024/01/10 12:45:22;;;;;;;41.45;17.23;;;;;;;0.89;66.16;101773.38;8318938;28;20079;-57
2024/01/10 12:49:23;;;;;;;33.47;15.30;;;;;;;0.78;62.52;101771.06;8317871;28;20041;-57
2024/01/10 12:53:23;;;;;;;35.55;15.00;;;;;;;0.74;61.23;101774.75;8320256;28;20124;-56
2024/01/10 12:57:24;;;;;;;38.47;15.48;;;;;;;0.71;60.62;101776.63;8318982;28;20037;-57
2024/01/10 13:01:24;;;;;;;42.78;16.40;;;;;;;0.74;60.38;101773.88;8313145;28;20056;-56
2024/01/10 13:05:25;;;;;;;31.45;13.85;;;;;;;0.82;60.15;101775.34;8316038;28;20100;-57
2024/01/10 13:09:26;;;;;;;40.70;14.77;;;;;;;0.83;61.00;101773.59;8314202;28;20071;-57
2024/01/10 13:13:26;;;;;;;37.90;16.20;;;;;;;0.99;60.71;101772.16;8317512;28;20034;-57
2024/01/10 13:17:27;;;;;;;39.45;16.45;;;;;;;1.02;59.21;101769.41;8316257;28;20590;-56
2024/01/10 13:21:27;;;;;;;39.08;16.95;;;;;;;1.10;60.49;101772.69;8330039;28;20074;-57
2024/01/10 13:25:28;;;;;;;39.08;16.58;;;;;;;1.16;61.33;101773.34;8318435;28;20041;-56
2024/01/10 13:29:28;;;;;;;39.17;16.95;;;;;;;1.30;61.22;101770.22;8302045;28;20048;-56
2024/01/10 13:33:29;;;;;;;35.83;16.30;;;;;;;1.43;61.74;101768.88;8302524;28;20482;-56
2024/01/10 13:37:31;;;;;;;43.00;16.50;;;;;;;1.46;60.78;101774.09;8306246;28;20244;-56
2024/01/10 13:41:33;;;;;;;36.83;16.58;;;;;;;1.42;61.13;101773.34;8303302;28;20044;-56
2024/01/10 13:45:34;;;;;;;45.22;17.02;;;;;;;1.28;60.83;101777.41;8304949;28;20423;-56
2024/01/10 13:49:35;;;;;;;37.58;16.15;;;;;;;1.18;61.06;101778.63;8302815;28;20486;-58
2024/01/10 13:53:36;;;;;;;40.30;17.75;;;;;;;1.15;61.16;101773.38;8303324;28;20418;-56
2024/01/10 13:57:36;;;;;;;40.45;17.20;;;;;;;1.09;61.13;101786.91;8304237;28;20038;-58
2024/01/10 14:01:37;;;;;;;42.15;16.83;;;;;;;1.12;62.11;101781.47;8304995;28;20038;-57
2024/01/10 14:05:37;;;;;;;39.20;16.92;;;;;;;1.11;61.49;101777.09;8303355;28;20126;-57
2024/01/10 14:09:37;;;;;;;39.63;16.45;;;;;;;1.21;61.66;101775.84;8303230;28;20034;-56
2024/01/10 14:13:38;;;;;;;39.42;16.27;;;;;;;1.23;60.60;101780.22;8305906;28;20656;-55
2024/01/10 14:17:38;;;;;;;38.33;15.90;;;;;;;1.19;60.06;101778.56;8302141;28;20113;-56
2024/01/10 14:21:39;;;;;;;35.90;16.33;;;;;;;1.23;60.28;101779.34;8304074;28;20064;-55
2024/01/10 14:25:39;;;;;;;37.90;15.88;;;;;;;1.27;61.07;101783.63;8309356;28;20046;-55
2024/01/10 14:29:40;;;;;;;38.50;16.52;;;;;;;1.29;60.98;101784.47;8304994;28;20042;-55
2024/01/10 14:33:40;;;;;;;39.28;14.88;;;;;;;1.46;60.89;101784.75;8304227;28;20037;-56
2024/01/10 14:37:41;;;;;;;36.22;15.20;;;;;;;1.64;61.60;101781.44;8303060;28;20050;-57
2024/01/10 14:41:41;;;;;;;39.88;16.40;;;;;;;1.65;59.90;101767.22;8305113;28;20566;-57
2024/01/10 14:45:42;;;;;;;41.35;15.98;;;;;;;1.58;60.12;101776.34;8303870;28;20625;-58
2024/01/10 14:49:42;;;;;;;29.13;14.38;;;;;;;1.49;59.63;101776.66;8301803;28;20049;-58
2024/01/10 14:53:42;;;;;;;37.05;16.42;;;;;;;1.52;59.72;101787.22;8302555;28;20067;-56
2024/01/10 14:57:43;;;;;;;33.28;14.80;;;;;;;1.46;59.34;101779.41;8303256;28;20041;-57
2024/01/10 15:01:45;;;;;;;40.63;15.32;;;;;;;1.45;59.56;101791.91;8307536;28;20079;-58
2024/01/10 15:05:45;;;;;;;35.15;14.32;;;;;;;1.46;59.58;101804.28;8309644;28;20045;-57
2024/01/10 15:09:47;;;;;;;33.47;15.30;;;;;;;1.41;59.84;101805.38;8309264;28;20145;-55
2024/01/10 15:13:48;;;;;;;31.23;14.32;;;;;;;1.37;59.12;101804.59;8309645;28;20052;-56
2024/01/10 15:17:48;;;;;;;35.47;15.50;;;;;;;1.31;59.70;101809.28;8306240;28;20684;-56
2024/01/10 15:21:49;;;;;;;36.85;14.85;;;;;;;1.30;59.42;101812.84;8310644;28;20083;-56
2024/01/10 15:25:49;;;;;;;30.35;13.00;;;;;;;1.21;60.34;101818.47;8310292;28;20041;-55
2024/01/10 15:29:49;;;;;;;36.38;14.38;;;;;;;1.12;60.48;101814.31;8304298;28;20418;-55
2024/01/10 15:33:50;;;;;;;41.78;14.80;;;;;;;1.05;60.34;101828.75;8314266;28;20512;-55
2024/01/10 15:37:50;;;;;;;42.70;15.05;;;;;;;0.97;60.02;101832.56;8315712;28;20494;-55
2024/01/10 15:41:51;;;;;;;33.08;15.02;;;;;;;0.99;60.59;101834.28;8307055;28;20084;-55
2024/01/10 15:45:52;;;;;;;33.35;15.15;;;;;;;0.91;60.53;101843.44;8313303;28;20057;-56
2024/01/10 15:49:52;;;;;;;37.15;15.07;;;;;;;0.89;61.31;101848.78;8304200;28;20041;-55
2024/01/10 15:53:56;;;;;;;37.55;16.20;;;;;;;0.83;61.53;101848.09;8312082;28;20061;-56
2024/01/10 15:57:57;;;;;;;39.17;16.25;;;;;;;0.72;62.14;101855.53;8310186;28;20580;-55
2024/01/10 16:01:57;;;;;;;43.15;16.38;;;;;;;0.59;62.42;101846.19;8312178;28;20136;-54
2024/01/10 16:05:58;;;;;;;44.85;17.13;;;;;;;0.55;62.52;101836.56;8308121;28;20056;-53
2024/01/10 16:09:59;;;;;;;49.00;17.35;;;;;;;0.44;63.59;101843.97;8313883;28;20131;-55
2024/01/10 16:14:02;;;;;;;39.08;15.93;;;;;;;0.24;64.54;101849.00;8311078;28;20571;-54
2024/01/10 16:18:03;;;;;;;44.58;18.45;;;;;;;0.25;63.79;101842.75;8315777;28;20354;-54
2024/01/10 16:22:03;;;;;;;43.25;18.00;;;;;;;0.38;63.32;101839.69;8315030;28;20049;-55
2024/01/10 16:26:04;;;;;;;37.10;15.70;;;;;;;0.33;63.75;101841.63;8295613;28;20406;-54
2024/01/10 16:30:05;;;;;;;39.78;16.23;;;;;;;0.29;64.33;101847.06;8312121;28;20128;-55
2024/01/10 16:34:07;;;;;;;67.68;24.02;;;;;;;0.17;64.72;101855.38;8304566;28;20052;-56
2024/01/10 16:38:07;;;;;;;44.78;17.38;;;;;;;0.11;64.92;101850.22;8310405;28;20398;-56
2024/01/10 16:42:08;;;;;;;42.38;17.00;;;;;;;-0.09;66.44;101838.38;8320127;28;20037;-55
2024/01/10 16:46:09;;;;;;;49.40;19.08;;;;;;;-0.16;66.67;101844.78;8313431;28;20049;-55
2024/01/10 16:50:09;;;;;;;57.75;22.10;;;;;;;-0.11;65.73;101840.22;8310591;28;20061;-56
2024/01/10 16:54:10;;;;;;;57.78;26.48;;;;;;;-0.12;65.43;101843.75;8313937;28;20042;-56
2024/01/10 16:58:10;;;;;;;61.60;26.85;;;;;;;-0.03;65.09;101854.16;8308029;28;20123;-57
2024/01/10 17:02:11;;;;;;;52.15;22.63;;;;;;;-0.16;65.64;101847.44;8317131;28;20068;-55
2024/01/10 17:06:11;;;;;;;78.63;26.63;;;;;;;-0.23;65.62;101843.19;8318698;28;20053;-56
2024/01/10 17:10:12;;;;;;;49.25;18.67;;;;;;;-0.34;66.85;101839.94;8321604;28;20045;-56
2024/01/10 17:14:16;;;;;;;46.63;17.88;;;;;;;-0.28;67.49;101847.75;8321647;28;20132;-56
2024/01/10 17:18:16;;;;;;;;;;;;;;;-0.48;67.54;101854.50;8321134;28;20072;-57
2024/01/10 17:22:16;;;;;;;48.20;17.92;;;;;;;-0.74;68.07;101851.59;8313621;28;19917;-57
2024/01/10 17:51:44;;;;;;;50.08;20.23;;;;;;;-2.57;78.86;101877.50;8400896;27;20912;-57
2024/01/10 17:55:44;;;;;;;48.33;20.10;;;;;;;-2.29;77.14;101871.69;8407080;28;20410;-55
2024/01/10 17:59:47;;;;;;;61.22;24.92;;;;;;;-2.25;77.16;101875.19;8429585;28;20122;-56
2024/01/10 18:03:48;;;;;;;62.67;25.15;;;;;;;-2.17;76.82;101868.84;8372046;28;20359;-55
2024/01/10 18:07:50;;;;;;;56.60;22.92;;;;;;;-2.02;75.77;101872.97;8375890;28;20132;-56
2024/01/10 18:11:51;;;;;;;55.42;24.13;;;;;;;-1.88;74.94;101876.25;8383556;28;20065;-56
2024/01/10 18:15:51;;;;;;;57.95;24.90;;;;;;;-1.94;74.77;101876.34;8368573;28;20060;-55
2024/01/10 18:19:51;;;;;;;58.28;26.05;;;;;;;-2.06;76.04;101885.41;8380600;28;20080;-56
2024/01/10 18:23:56;;;;;;;57.17;24.25;;;;;;;-2.16;76.74;101877.66;8385318;28;20115;-56
2024/01/10 18:27:57;;;;;;;58.47;23.65;;;;;;;-2.29;78.12;101865.53;8381600;28;20049;-55
2024/01/10 18:32:13;;;;;;;63.20;25.02;;;;;;;-2.34;78.15;101880.63;8381105;28;20052;-55
2024/01/10 18:36:14;;;;;;;70.68;29.77;;;;;;;-2.35;78.31;101886.84;8380713;28;20039;-55
2024/01/10 18:40:15;;;;;;;74.80;26.88;;;;;;;-2.20;78.22;101881.25;8383495;28;20052;-56
2024/01/10 18:44:15;;;;;;;78.40;29.60;;;;;;;-2.15;77.06;101887.34;8383774;28;20090;-57
2024/01/10 18:48:16;;;;;;;140.55;44.00;;;;;;;-2.24;76.80;101887.50;8386128;28;20040;-54
2024/01/10 18:52:16;;;;;;;167.77;50.28;;;;;;;-2.27;77.91;101903.44;8363467;28;20512;-57
2024/01/10 18:56:18;;;;;;;73.65;27.35;;;;;;;-2.38;77.99;101910.72;8366337;28;20474;-56
2024/01/10 19:00:27;;;;;;;55.10;21.42;;;;;;;-2.56;79.76;101921.63;8364359;28;20466;-55
2024/01/10 19:04:27;;;;;;;48.22;19.98;;;;;;;-2.64;80.56;101928.78;8361096;28;20044;-55
2024/01/10 19:08:28;;;;;;;54.60;21.40;;;;;;;-2.77;81.24;101930.72;8365754;28;20037;-55
2024/01/10 19:12:28;;;;;;;57.83;22.10;;;;;;;-2.97;81.25;101934.56;8346838;28;20054;-56
2024/01/10 19:16:28;;;;;;;60.53;23.63;;;;;;;-3.17;83.61;101942.75;8345222;28;20044;-55
2024/01/10 19:20:30;;;;;;;55.30;22.17;;;;;;;-3.58;84.05;101933.59;8344480;28;20045;-56
2024/01/10 19:24:31;;;;;;;59.42;24.30;;;;;;;-3.55;84.70;101947.66;8355064;28;20377;-56
2024/01/10 19:28:31;;;;;;;62.83;23.35;;;;;;;-3.56;85.62;101948.56;8355802;28;20260;-56
2024/01/10 19:32:32;;;;;;;61.60;23.73;;;;;;;-3.69;86.58;101943.44;8359202;28;20094;-55
2024/01/10 19:36:32;;;;;;;61.22;22.88;;;;;;;-3.79;87.98;101955.84;8352618;28;20037;-56
2024/01/10 19:40:37;;;;;;;57.33;22.75;;;;;;;-3.87;87.30;101957.72;8356914;28;20052;-55
2024/01/10 19:44:38;;;;;;;68.70;24.63;;;;;;;-3.83;86.04;101953.25;8362132;28;20520;-56
2024/01/10 19:48:38;;;;;;;73.88;27.77;;;;;;;-3.83;86.70;101958.53;8387786;28;20109;-56
2024/01/10 19:52:39;;;;;;;71.70;24.90;;;;;;;-3.83;87.39;101963.81;8386403;28;20048;-55
2024/01/10 19:56:40;;;;;;;59.15;23.13;;;;;;;-3.69;86.14;101962.78;8388180;28;20039;-56
2024/01/10 20:00:40;;;;;;;62.95;23.75;;;;;;;-3.93;87.04;101978.00;8380187;28;20419;-53
2024/01/10 20:04:42;;;;;;;64.50;23.55;;;;;;;-4.03;85.90;101967.53;8386440;28;20098;-54